createdAt,value
2022-08-26T00:01:54.298Z,63.92
2022-08-26T00:04:23.812Z,64.03
2022-08-26T00:06:52.415Z,64.06
2022-08-26T00:09:19.652Z,64.18
2022-08-26T00:11:47.454Z,63.82
2022-08-26T00:14:16.387Z,64.09
2022-08-26T00:16:47.239Z,63.96
2022-08-26T00:19:18.017Z,63.98
2022-08-26T00:21:48.558Z,64.04
2022-08-26T00:24:16.991Z,64.00
2022-08-26T00:26:44.594Z,64.13
2022-08-26T00:29:12.551Z,63.93
2022-08-26T00:31:40.962Z,63.88
2022-08-26T00:34:09.490Z,64.02
2022-08-26T00:36:37.608Z,64.24
2022-08-26T00:39:07.586Z,64.29
2022-08-26T00:41:37.696Z,64.35
2022-08-26T00:44:05.654Z,64.34
2022-08-26T00:46:37.107Z,64.34
2022-08-26T00:49:17.378Z,64.14
2022-08-26T00:51:49.616Z,64.46
2022-08-26T00:54:20.589Z,64.62
2022-08-26T00:57:05.023Z,64.51
2022-08-26T00:59:36.568Z,64.73
2022-08-26T01:02:06.780Z,64.56
2022-08-26T01:04:48.723Z,64.84
2022-08-26T01:07:22.010Z,64.87
2022-08-26T01:09:49.317Z,64.93
2022-08-26T01:12:22.055Z,65.05
2022-08-26T01:14:50.380Z,64.91
2022-08-26T01:17:18.514Z,64.98
2022-08-26T01:19:51.114Z,64.89
2022-08-26T01:22:28.635Z,64.94
2022-08-26T01:24:59.700Z,65.10
2022-08-26T01:27:32.420Z,65.23
2022-08-26T01:30:01.888Z,65.34
2022-08-26T01:32:33.323Z,66.26
2022-08-26T01:35:01.204Z,65.97
2022-08-26T01:37:35.203Z,65.67
2022-08-26T01:40:04.630Z,65.70
2022-08-26T01:42:32.064Z,65.99
2022-08-26T01:45:14.783Z,65.91
2022-08-26T01:47:43.340Z,65.68
2022-08-26T01:50:27.999Z,65.46
2022-08-26T01:53:01.944Z,65.48
2022-08-26T01:55:33.198Z,65.64
2022-08-26T01:58:06.628Z,66.25
2022-08-26T02:00:35.813Z,66.15
2022-08-26T02:03:17.514Z,65.97
2022-08-26T02:05:55.035Z,66.03
2022-08-26T02:08:28.931Z,65.98
2022-08-26T02:10:56.144Z,65.86
2022-08-26T02:13:26.748Z,66.06
2022-08-26T02:15:55.486Z,66.15
2022-08-26T02:18:23.934Z,66.23
2022-08-26T02:20:54.487Z,66.04
2022-08-26T02:23:21.895Z,65.71
2022-08-26T02:26:02.931Z,65.73
2022-08-26T02:28:35.905Z,65.72
2022-08-26T02:31:03.596Z,65.90
2022-08-26T02:33:32.021Z,65.54
2022-08-26T02:35:59.531Z,66.00
2022-08-26T02:38:26.886Z,66.52
2022-08-26T02:40:54.544Z,66.44
2022-08-26T02:43:23.871Z,66.28
2022-08-26T02:46:00.091Z,66.44
2022-08-26T02:48:29.036Z,66.76
2022-08-26T02:50:56.456Z,66.55
2022-08-26T02:53:25.479Z,66.43
2022-08-26T02:55:53.132Z,66.44
2022-08-26T02:58:20.790Z,66.59
2022-08-26T03:00:53.147Z,66.35
2022-08-26T03:03:22.508Z,66.16
2022-08-26T03:05:52.100Z,66.32
2022-08-26T03:08:19.743Z,66.39
2022-08-26T03:10:48.069Z,66.10
2022-08-26T03:13:16.922Z,66.06
2022-08-26T03:15:44.449Z,66.13
2022-08-26T03:18:15.097Z,66.04
2022-08-26T03:20:42.355Z,66.42
2022-08-26T03:23:11.179Z,66.28
2022-08-26T03:25:38.792Z,66.41
2022-08-26T03:28:06.076Z,65.90
2022-08-26T03:30:45.047Z,66.19
2022-08-26T03:33:13.777Z,66.23
2022-08-26T03:35:43.611Z,66.44
2022-08-26T03:38:11.752Z,66.29
2022-08-26T03:40:39.824Z,66.34
2022-08-26T03:43:10.668Z,66.25
2022-08-26T03:45:38.701Z,66.30
2022-08-26T03:48:06.023Z,66.39
2022-08-26T03:50:34.284Z,66.16
2022-08-26T03:53:04.210Z,66.36
2022-08-26T03:55:34.511Z,66.35
2022-08-26T03:58:02.285Z,66.06
2022-08-26T04:00:30.295Z,65.94
2022-08-26T04:02:57.875Z,66.42
2022-08-26T04:05:25.373Z,66.29
2022-08-26T04:07:52.596Z,66.79
2022-08-26T04:10:26.426Z,66.54
2022-08-26T04:12:58.849Z,66.46
2022-08-26T04:15:27.273Z,66.59
2022-08-26T04:17:56.029Z,66.72
2022-08-26T04:20:25.983Z,66.58
2022-08-26T04:22:53.649Z,66.40
2022-08-26T04:25:21.431Z,67.08
2022-08-26T04:27:48.679Z,67.21
2022-08-26T04:30:17.905Z,67.23
2022-08-26T04:32:45.687Z,67.23
2022-08-26T04:35:12.917Z,67.00
2022-08-26T04:37:40.208Z,66.84
2022-08-26T04:40:10.970Z,66.79
2022-08-26T04:42:38.319Z,66.88
2022-08-26T04:45:10.361Z,66.59
2022-08-26T04:47:38.639Z,66.76
2022-08-26T04:50:07.652Z,66.69
2022-08-26T04:52:36.372Z,66.67
2022-08-26T04:55:05.982Z,66.59
2022-08-26T04:57:33.903Z,66.83
2022-08-26T05:00:01.051Z,66.78
2022-08-26T05:02:28.720Z,66.67
2022-08-26T05:04:55.871Z,66.19
2022-08-26T05:07:23.055Z,66.17
2022-08-26T05:09:50.133Z,66.29
2022-08-26T05:12:17.290Z,66.05
2022-08-26T05:14:46.500Z,66.23
2022-08-26T05:17:15.035Z,66.30
2022-08-26T05:19:42.956Z,66.12
2022-08-26T05:22:10.356Z,66.12
2022-08-26T05:24:41.358Z,65.89
2022-08-26T05:27:11.696Z,66.39
2022-08-26T05:29:41.073Z,66.53
2022-08-26T05:32:08.432Z,66.32
2022-08-26T05:34:38.616Z,66.44
2022-08-26T05:37:06.788Z,67.67
2022-08-26T05:39:34.400Z,68.02
2022-08-26T05:42:01.609Z,67.14
2022-08-26T05:44:29.631Z,67.36
2022-08-26T05:47:16.771Z,69.05
2022-08-26T05:49:51.612Z,67.82
2022-08-26T05:52:19.589Z,68.83
2022-08-26T05:54:47.777Z,67.99
2022-08-26T05:57:15.231Z,67.40
2022-08-26T05:59:42.448Z,67.00
2022-08-26T06:02:10.188Z,67.25
2022-08-26T06:04:37.324Z,68.44
2022-08-26T06:07:04.561Z,69.09
2022-08-26T06:09:33.064Z,69.47
2022-08-26T06:12:01.869Z,70.98
2022-08-26T06:14:30.621Z,69.64
2022-08-26T06:16:57.903Z,68.74
2022-08-26T06:19:25.122Z,68.30
2022-08-26T06:22:22.445Z,67.79
2022-08-26T06:25:10.126Z,69.63
2022-08-26T06:27:37.424Z,67.94
2022-08-26T06:30:04.856Z,70.15
2022-08-26T06:32:32.130Z,68.47
2022-08-26T06:34:59.321Z,68.28
2022-08-26T06:37:26.492Z,68.45
2022-08-26T06:39:53.623Z,68.24
2022-08-26T06:42:20.848Z,67.78
2022-08-26T06:44:48.023Z,67.70
2022-08-26T06:47:15.263Z,67.64
2022-08-26T06:49:42.453Z,67.33
2022-08-26T06:52:11.457Z,67.39
2022-08-26T06:54:43.184Z,68.07
2022-08-26T06:57:12.438Z,67.01
2022-08-26T06:59:41.436Z,66.56
2022-08-26T07:02:08.668Z,67.93
2022-08-26T07:04:41.120Z,67.80
2022-08-26T07:07:09.672Z,66.99
2022-08-26T07:09:37.548Z,66.21
2022-08-26T07:12:06.846Z,65.94
2022-08-26T07:14:34.907Z,65.64
2022-08-26T07:17:02.999Z,65.31
2022-08-26T07:19:31.766Z,65.33
2022-08-26T07:22:04.948Z,65.07
2022-08-26T07:24:35.586Z,65.33
2022-08-26T07:27:09.087Z,65.43
2022-08-26T07:29:38.045Z,65.27
2022-08-26T07:32:06.706Z,65.85
2022-08-26T07:34:33.928Z,66.33
2022-08-26T07:37:01.600Z,64.24
2022-08-26T07:39:31.677Z,65.12
2022-08-26T07:42:07.881Z,63.92
2022-08-26T07:44:37.602Z,63.26
2022-08-26T07:47:10.069Z,63.84
2022-08-26T07:49:52.667Z,63.55
2022-08-26T07:52:25.356Z,63.25
2022-08-26T07:54:54.341Z,62.41
2022-08-26T07:57:21.631Z,62.12
2022-08-26T07:59:54.067Z,61.38
2022-08-26T08:02:23.929Z,59.46
2022-08-26T08:04:51.915Z,58.94
2022-08-26T08:07:19.339Z,58.40
2022-08-26T08:09:49.601Z,54.36
2022-08-26T08:12:19.193Z,46.99
2022-08-26T08:14:47.297Z,48.61
2022-08-26T08:17:16.329Z,48.17
2022-08-26T08:19:43.748Z,49.81
2022-08-26T08:22:17.367Z,48.51
2022-08-26T08:24:49.715Z,42.76
2022-08-26T08:27:23.288Z,40.77
2022-08-26T08:29:54.369Z,40.41
2022-08-26T08:32:23.765Z,39.24
2022-08-26T08:34:51.112Z,39.64
2022-08-26T08:37:18.918Z,40.75
2022-08-26T08:39:46.030Z,38.59
2022-08-26T08:42:30.328Z,37.92
2022-08-26T08:45:02.357Z,37.70
2022-08-26T08:47:39.920Z,38.34
2022-08-26T08:50:17.782Z,38.88
2022-08-26T08:52:51.162Z,37.75
2022-08-26T08:55:18.821Z,38.11
2022-08-26T08:57:49.357Z,38.93
2022-08-26T09:00:30.655Z,37.08
2022-08-26T09:03:07.553Z,36.56
2022-08-26T09:05:48.743Z,34.11
2022-08-26T09:08:21.929Z,31.85
2022-08-26T09:10:59.617Z,30.63
2022-08-26T09:13:28.460Z,31.62
2022-08-26T09:16:22.493Z,31.57
2022-08-26T09:19:14.354Z,32.90
2022-08-26T09:21:41.552Z,33.44
2022-08-26T09:24:11.240Z,33.05
2022-08-26T09:26:43.811Z,33.78
2022-08-26T09:29:33.999Z,33.38
2022-08-26T09:32:24.447Z,34.08
2022-08-26T09:34:56.936Z,34.16
2022-08-26T09:40:27.129Z,35.39
2022-08-26T09:43:06.779Z,35.52
2022-08-26T09:45:36.294Z,34.92
2022-08-26T09:48:03.703Z,34.53
2022-08-26T09:50:50.448Z,35.56
2022-08-26T09:53:28.507Z,35.53
2022-08-26T09:56:32.805Z,36.34
2022-08-26T09:59:01.476Z,35.92
2022-08-26T10:01:30.839Z,35.91
2022-08-26T10:04:20.137Z,35.51
2022-08-26T10:07:07.546Z,35.12
2022-08-26T10:09:39.940Z,35.57
2022-08-26T10:12:12.081Z,35.36
2022-08-26T10:17:29.126Z,34.30
2022-08-26T10:20:24.974Z,34.29
2022-08-26T10:23:18.100Z,32.53
2022-08-26T10:26:14.514Z,31.23
2022-08-26T10:29:07.632Z,33.05
2022-08-26T10:31:41.185Z,31.01
2022-08-26T10:34:12.471Z,30.97
2022-08-26T10:37:10.543Z,30.81
2022-08-26T10:39:56.934Z,31.29
2022-08-26T10:42:40.564Z,30.83
2022-08-26T10:45:28.933Z,31.55
2022-08-26T10:48:05.368Z,31.21
2022-08-26T10:50:40.323Z,30.89
2022-08-26T10:53:32.636Z,30.95
2022-08-26T10:56:18.867Z,31.38
2022-08-26T10:58:55.304Z,30.67
2022-08-26T11:01:41.086Z,31.28
2022-08-26T11:04:35.092Z,30.43
2022-08-26T11:07:31.758Z,31.80
2022-08-26T11:10:06.880Z,31.90
2022-08-26T11:12:37.230Z,30.46
2022-08-26T11:15:20.044Z,28.89
2022-08-26T11:17:51.932Z,29.42
2022-08-26T11:20:37.124Z,29.63
2022-08-26T11:23:12.763Z,30.69
2022-08-26T11:26:01.579Z,31.06
2022-08-26T11:28:44.801Z,29.67
2022-08-26T11:31:34.688Z,30.35
2022-08-26T11:34:07.147Z,30.27
2022-08-26T11:36:51.866Z,28.75
2022-08-26T11:39:30.391Z,29.54
2022-08-26T11:42:14.350Z,29.58
2022-08-26T11:44:49.166Z,29.49
2022-08-26T11:47:25.083Z,29.91
2022-08-26T11:50:11.332Z,28.56
2022-08-26T11:52:38.600Z,28.31
2022-08-26T11:55:08.994Z,28.95
2022-08-26T11:57:44.962Z,28.51
2022-08-26T12:00:22.186Z,28.11
2022-08-26T12:02:52.645Z,27.30
2022-08-26T12:05:36.270Z,27.58
2022-08-26T12:08:12.215Z,27.56
2022-08-26T12:10:40.301Z,27.44
2022-08-26T12:13:16.759Z,27.42
2022-08-26T12:15:53.282Z,26.53
2022-08-26T12:18:29.529Z,26.51
2022-08-26T12:21:00.664Z,26.52
2022-08-26T12:23:36.999Z,26.40
2022-08-26T12:26:21.244Z,25.47
2022-08-26T12:28:53.090Z,26.63
2022-08-26T12:31:30.266Z,27.68
2022-08-26T12:34:00.680Z,25.75
2022-08-26T12:36:43.192Z,25.76
2022-08-26T12:39:33.489Z,26.48
2022-08-26T12:42:24.775Z,26.20
2022-08-26T12:44:59.213Z,25.97
2022-08-26T12:47:42.970Z,26.15
2022-08-26T12:50:32.775Z,26.39
2022-08-26T12:53:17.005Z,26.29
2022-08-26T12:55:48.525Z,26.10
2022-08-26T12:58:15.694Z,27.04
2022-08-26T13:00:45.068Z,25.53
2022-08-26T13:03:31.699Z,25.77
2022-08-26T13:06:18.035Z,26.51
2022-08-26T13:08:48.443Z,26.20
2022-08-26T13:11:20.696Z,27.13
2022-08-26T13:13:53.431Z,26.62
2022-08-26T13:16:22.409Z,26.74
2022-08-26T13:18:53.158Z,25.97
2022-08-26T13:21:23.983Z,26.39
2022-08-26T13:23:52.056Z,26.00
2022-08-26T13:26:20.997Z,26.55
2022-08-26T13:29:01.557Z,25.72
2022-08-26T13:31:33.049Z,26.15
2022-08-26T13:34:01.119Z,25.93
2022-08-26T13:36:28.483Z,26.43
2022-08-26T13:38:55.831Z,25.29
2022-08-26T13:41:29.260Z,25.70
2022-08-26T13:43:58.191Z,26.30
2022-08-26T13:46:28.211Z,26.68
2022-08-26T13:48:57.559Z,26.14
2022-08-26T13:51:26.335Z,25.27
2022-08-26T13:53:54.365Z,25.77
2022-08-26T13:56:23.028Z,26.74
2022-08-26T13:58:50.424Z,26.51
2022-08-26T14:01:17.883Z,26.56
2022-08-26T14:03:46.278Z,26.35
2022-08-26T14:06:13.768Z,25.54
2022-08-26T14:08:43.139Z,25.76
2022-08-26T14:11:10.495Z,26.16
2022-08-26T14:13:39.266Z,25.66
2022-08-26T14:16:10.912Z,25.49
2022-08-26T14:18:44.396Z,25.23
2022-08-26T14:21:14.733Z,24.48
2022-08-26T14:23:42.089Z,24.99
2022-08-26T14:26:11.051Z,25.22
2022-08-26T14:28:44.794Z,24.54
2022-08-26T14:31:12.702Z,25.21
2022-08-26T14:33:40.078Z,25.52
2022-08-26T14:36:26.378Z,25.29
2022-08-26T14:38:55.707Z,24.38
2022-08-26T14:41:25.484Z,25.04
2022-08-26T14:44:13.759Z,25.48
2022-08-26T14:46:48.168Z,25.65
2022-08-26T14:49:20.072Z,24.50
2022-08-26T14:51:47.405Z,25.41
2022-08-26T14:54:16.331Z,26.08
2022-08-26T14:56:51.389Z,25.78
2022-08-26T14:59:21.943Z,25.90
2022-08-26T15:01:49.390Z,24.46
2022-08-26T15:04:17.039Z,25.66
2022-08-26T15:06:44.424Z,26.24
2022-08-26T15:09:11.723Z,26.70
2022-08-26T15:11:39.503Z,27.35
2022-08-26T15:14:07.183Z,27.60
2022-08-26T15:16:35.067Z,27.33
2022-08-26T15:19:05.127Z,28.36
2022-08-26T15:21:34.206Z,28.08
2022-08-26T15:24:02.925Z,27.87
2022-08-26T15:26:31.619Z,28.01
2022-08-26T15:29:03.093Z,27.99
2022-08-26T15:31:33.014Z,27.77
2022-08-26T15:34:04.375Z,28.21
2022-08-26T15:36:32.574Z,27.69
2022-08-26T15:39:01.190Z,26.80
2022-08-26T15:41:29.520Z,26.80
2022-08-26T15:43:57.817Z,27.17
2022-08-26T15:46:24.952Z,26.99
2022-08-26T15:48:52.737Z,28.00
2022-08-26T15:51:23.189Z,27.87
2022-08-26T15:53:51.507Z,27.19
2022-08-26T15:56:19.045Z,27.43
2022-08-26T15:58:47.074Z,28.53
2022-08-26T16:01:14.925Z,28.54
2022-08-26T16:03:52.434Z,29.75
2022-08-26T16:06:24.127Z,28.57
2022-08-26T16:08:51.925Z,29.63
2022-08-26T16:11:20.051Z,29.20
2022-08-26T16:13:47.884Z,29.05
2022-08-26T16:16:16.077Z,30.23
2022-08-26T16:18:43.962Z,29.59
2022-08-26T16:21:20.954Z,30.59
2022-08-26T16:23:48.793Z,31.28
2022-08-26T16:26:18.599Z,31.11
2022-08-26T16:28:46.899Z,31.74
2022-08-26T16:31:14.849Z,32.04
2022-08-26T16:33:42.297Z,32.30
2022-08-26T16:36:10.361Z,32.50
2022-08-26T16:38:38.598Z,32.98
2022-08-26T16:41:06.477Z,32.98
2022-08-26T16:43:34.375Z,33.79
2022-08-26T16:46:01.689Z,33.43
2022-08-26T16:48:28.943Z,33.69
2022-08-26T16:50:56.056Z,33.70
2022-08-26T16:53:23.642Z,33.79
2022-08-26T16:55:51.481Z,33.88
2022-08-26T16:58:21.935Z,34.07
2022-08-26T17:00:49.555Z,34.27
2022-08-26T17:03:16.980Z,34.35
2022-08-26T17:05:44.622Z,34.78
2022-08-26T17:08:14.542Z,35.20
2022-08-26T17:10:54.853Z,35.31
2022-08-26T17:13:34.877Z,35.23
2022-08-26T17:16:05.201Z,35.23
2022-08-26T17:18:33.645Z,35.33
2022-08-26T17:21:03.917Z,35.76
2022-08-26T17:23:31.158Z,36.08
2022-08-26T17:25:58.329Z,36.35
2022-08-26T17:28:25.551Z,36.58
2022-08-26T17:30:52.845Z,36.67
2022-08-26T17:33:22.099Z,37.00
2022-08-26T17:35:53.100Z,37.19
2022-08-26T17:38:21.663Z,37.38
2022-08-26T17:40:49.768Z,37.30
2022-08-26T17:43:17.867Z,37.68
2022-08-26T17:45:45.167Z,38.28
2022-08-26T17:48:12.588Z,38.74
2022-08-26T17:50:41.493Z,39.00
2022-08-26T17:53:17.837Z,39.33
2022-08-26T17:55:47.655Z,39.62
2022-08-26T17:58:17.317Z,39.48
2022-08-26T18:00:47.229Z,40.02
2022-08-26T18:03:14.575Z,40.09
2022-08-26T18:05:42.759Z,40.36
2022-08-26T18:08:10.251Z,40.37
2022-08-26T18:10:37.709Z,40.55
2022-08-26T18:13:04.999Z,40.81
2022-08-26T18:15:32.376Z,40.64
2022-08-26T18:17:59.860Z,41.25
2022-08-26T18:20:26.983Z,41.23
2022-08-26T18:22:54.231Z,41.29
2022-08-26T18:25:21.483Z,41.38
2022-08-26T18:27:48.737Z,40.87
2022-08-26T18:30:20.793Z,40.42
2022-08-26T18:32:49.564Z,41.52
2022-08-26T18:35:17.593Z,41.84
2022-08-26T18:37:45.270Z,41.80
2022-08-26T18:40:14.301Z,41.84
2022-08-26T18:42:41.781Z,41.67
2022-08-26T18:45:10.094Z,42.02
2022-08-26T18:47:44.061Z,42.08
2022-08-26T18:50:11.300Z,41.95
2022-08-26T18:52:38.679Z,42.26
2022-08-26T18:55:07.023Z,42.30
2022-08-26T18:57:34.166Z,42.50
2022-08-26T19:00:02.280Z,42.58
2022-08-26T19:02:30.651Z,42.29
2022-08-26T19:04:57.986Z,42.66
2022-08-26T19:07:25.495Z,42.72
2022-08-26T19:09:54.138Z,42.35
2022-08-26T19:12:21.857Z,42.70
2022-08-26T19:14:49.040Z,42.50
2022-08-26T19:17:16.266Z,42.65
2022-08-26T19:19:43.444Z,42.91
2022-08-26T19:22:12.913Z,42.90
2022-08-26T19:24:40.016Z,42.59
2022-08-26T19:27:09.717Z,42.85
2022-08-26T19:29:38.855Z,42.92
2022-08-26T19:32:06.182Z,43.27
2022-08-26T19:34:33.425Z,43.23
2022-08-26T19:37:00.883Z,43.39
2022-08-26T19:39:28.576Z,43.57
2022-08-26T19:41:55.879Z,43.84
2022-08-26T19:44:42.450Z,43.69
2022-08-26T19:47:11.004Z,44.16
2022-08-26T19:49:38.852Z,43.84
2022-08-26T19:52:06.555Z,44.12
2022-08-26T19:54:34.648Z,44.01
2022-08-26T19:57:02.138Z,44.28
2022-08-26T19:59:29.504Z,44.25
2022-08-26T20:02:01.015Z,44.17
2022-08-26T20:04:30.455Z,44.12
2022-08-26T20:07:00.338Z,44.21
2022-08-26T20:09:32.770Z,44.35
2022-08-26T20:12:01.136Z,44.54
2022-08-26T20:14:30.027Z,44.58
2022-08-26T20:16:57.352Z,44.77
2022-08-26T20:19:43.530Z,44.85
2022-08-26T20:22:11.560Z,44.79
2022-08-26T20:24:38.844Z,44.93
2022-08-26T20:27:08.011Z,45.12
2022-08-26T20:29:36.488Z,45.05
2022-08-26T20:32:06.300Z,45.39
2022-08-26T20:34:34.420Z,45.48
2022-08-26T20:37:02.282Z,45.44
2022-08-26T20:39:29.926Z,45.45
2022-08-26T20:41:58.289Z,45.46
2022-08-26T20:44:25.776Z,45.40
2022-08-26T20:46:53.276Z,45.20
2022-08-26T20:49:20.717Z,45.94
2022-08-26T20:51:51.531Z,45.88
2022-08-26T20:54:23.930Z,46.02
2022-08-26T20:56:54.961Z,45.82
2022-08-26T20:59:22.363Z,45.77
2022-08-26T21:01:49.679Z,45.59
2022-08-26T21:04:21.794Z,45.82
2022-08-26T21:06:52.450Z,45.78
2022-08-26T21:09:22.422Z,46.15
2022-08-26T21:11:50.404Z,45.72
2022-08-26T21:14:19.077Z,45.61
2022-08-26T21:16:47.189Z,45.83
2022-08-26T21:19:18.136Z,45.64
2022-08-26T21:21:47.742Z,45.53
2022-08-26T21:24:15.713Z,45.59
2022-08-26T21:26:42.964Z,45.40
2022-08-26T21:29:10.195Z,44.80
2022-08-26T21:31:44.937Z,45.54
2022-08-26T21:34:17.527Z,45.34
2022-08-26T21:36:48.564Z,45.61
2022-08-26T21:39:16.880Z,45.60
2022-08-26T21:41:45.053Z,45.45
2022-08-26T21:44:14.422Z,45.18
2022-08-26T21:46:42.733Z,45.04
2022-08-26T21:49:13.373Z,44.92
2022-08-26T21:51:45.287Z,44.99
2022-08-26T21:54:13.097Z,45.13
2022-08-26T21:56:46.851Z,45.19
2022-08-26T21:59:17.361Z,44.92
2022-08-26T22:01:44.834Z,45.10
2022-08-26T22:04:12.088Z,44.96
2022-08-26T22:06:48.287Z,45.37
2022-08-26T22:09:18.791Z,45.34
2022-08-26T22:11:47.504Z,45.40
2022-08-26T22:14:17.448Z,45.49
2022-08-26T22:16:44.701Z,45.37
2022-08-26T22:19:18.026Z,45.52
2022-08-26T22:21:45.454Z,45.78
2022-08-26T22:24:12.669Z,45.74
2022-08-26T22:26:40.069Z,45.93
2022-08-26T22:29:07.697Z,46.06
2022-08-26T22:31:36.960Z,46.19
2022-08-26T22:34:09.356Z,46.24
2022-08-26T22:36:43.180Z,46.56
2022-08-26T22:39:13.102Z,46.52
2022-08-26T22:41:41.323Z,46.61
2022-08-26T22:44:08.508Z,46.66
2022-08-26T22:46:36.829Z,46.63
2022-08-26T22:49:04.957Z,46.84
2022-08-26T22:51:32.374Z,46.79
2022-08-26T22:53:59.572Z,47.06
2022-08-26T22:56:27.000Z,47.07
2022-08-26T22:58:54.158Z,47.04
2022-08-26T23:01:21.384Z,46.88
2022-08-26T23:03:48.666Z,47.08
2022-08-26T23:06:15.870Z,46.96
2022-08-26T23:08:45.433Z,47.03
2022-08-26T23:11:13.453Z,46.94
2022-08-26T23:13:41.264Z,47.14
2022-08-26T23:16:11.396Z,47.23
2022-08-26T23:18:40.159Z,47.34
2022-08-26T23:21:07.527Z,47.65
2022-08-26T23:23:35.328Z,47.44
2022-08-26T23:26:06.018Z,47.80
2022-08-26T23:28:34.897Z,47.87
2022-08-26T23:31:02.158Z,48.06
2022-08-26T23:33:49.657Z,48.39
2022-08-26T23:36:18.508Z,48.54
2022-08-26T23:38:52.961Z,48.58
2022-08-26T23:41:23.371Z,48.79
2022-08-26T23:43:51.756Z,49.03
2022-08-26T23:46:19.259Z,48.91
2022-08-26T23:48:46.940Z,49.41
2022-08-26T23:51:32.975Z,49.68
2022-08-26T23:54:00.234Z,49.88
2022-08-26T23:56:27.378Z,49.97
2022-08-26T23:58:55.113Z,50.12
